createdAt,value
2018-03-19T00:00:52.874Z,976.4
2018-03-19T00:01:55.681Z,976.2
2018-03-19T00:02:58.352Z,976.5
2018-03-19T00:04:00.926Z,976.4
2018-03-19T00:05:03.566Z,976.4
2018-03-19T00:06:06.052Z,976.5
2018-03-19T00:07:13.651Z,976.3
2018-03-19T00:08:16.147Z,976.4
2018-03-19T00:09:18.660Z,976.4
2018-03-19T00:10:21.259Z,976.6
2018-03-19T00:11:23.774Z,976.3
2018-03-19T00:12:26.256Z,976.5
2018-03-19T00:13:28.711Z,976.4
2018-03-19T00:14:32.126Z,976.4
2018-03-19T00:15:34.592Z,976.4
2018-03-19T00:16:37.038Z,976.4
2018-03-19T00:17:39.624Z,976.4
2018-03-19T00:18:46.695Z,976.5
2018-03-19T00:19:49.255Z,976.6
2018-03-19T00:20:51.971Z,976.5
2018-03-19T00:21:54.571Z,976.4
2018-03-19T00:22:57.092Z,976.3
2018-03-19T00:23:59.590Z,976.4
2018-03-19T00:25:02.127Z,976.3
2018-03-19T00:26:04.584Z,976.4
2018-03-19T00:27:07.144Z,976.4
2018-03-19T00:28:11.027Z,976.3
2018-03-19T00:29:13.457Z,976.3
2018-03-19T00:30:15.952Z,976.4
2018-03-19T00:31:18.448Z,976
2018-03-19T00:32:20.969Z,976.3
2018-03-19T00:33:23.596Z,976.5
2018-03-19T00:34:26.158Z,976.4
2018-03-19T00:35:28.621Z,976.4
2018-03-19T00:36:31.186Z,976.3
2018-03-19T00:37:33.753Z,976.3
2018-03-19T00:38:36.246Z,976.2
2018-03-19T00:39:38.735Z,976.3
2018-03-19T00:40:41.225Z,976.3
2018-03-19T00:41:43.701Z,976.3
2018-03-19T00:42:46.197Z,976.4
2018-03-19T00:43:48.594Z,976.2
2018-03-19T00:44:51.134Z,976.2
2018-03-19T00:45:53.705Z,976.4
2018-03-19T00:46:56.242Z,976.3
2018-03-19T00:48:01.329Z,976.3
2018-03-19T00:49:04.565Z,976.4
2018-03-19T00:50:07.654Z,976.2
2018-03-19T00:51:10.222Z,976.2
2018-03-19T00:52:12.620Z,976.1
2018-03-19T00:53:15.769Z,976.1
2018-03-19T00:54:18.297Z,976.1
2018-03-19T00:55:20.885Z,976.3
2018-03-19T00:56:23.294Z,976.1
2018-03-19T00:57:25.833Z,976.3
2018-03-19T00:58:28.476Z,976.1
2018-03-19T00:59:30.996Z,976.1
2018-03-19T01:00:33.483Z,976.1
2018-03-19T01:01:35.883Z,976.1
2018-03-19T01:02:38.300Z,976.1
2018-03-19T01:03:41.564Z,976
2018-03-19T01:04:44.100Z,976.1
2018-03-19T01:05:46.533Z,976
2018-03-19T01:06:49.040Z,976
2018-03-19T01:07:51.619Z,976
2018-03-19T01:08:54.111Z,976
2018-03-19T01:09:56.566Z,976
2018-03-19T01:10:59.053Z,976.1
2018-03-19T01:12:01.718Z,976
2018-03-19T01:13:04.243Z,976
2018-03-19T01:14:06.724Z,976.3
2018-03-19T01:15:09.174Z,976
2018-03-19T01:16:11.665Z,975.9
2018-03-19T01:17:14.108Z,975.9
2018-03-19T01:18:16.565Z,975.9
2018-03-19T01:19:18.980Z,976.1
2018-03-19T01:20:21.578Z,975.9
2018-03-19T01:21:24.191Z,976.1
2018-03-19T01:22:26.678Z,976
2018-03-19T01:23:29.294Z,975.8
2018-03-19T01:24:31.812Z,975.8
2018-03-19T01:25:34.267Z,975.9
2018-03-19T01:26:36.735Z,975.9
2018-03-19T01:27:39.196Z,975.9
2018-03-19T01:28:41.775Z,975.9
2018-03-19T01:29:44.209Z,976.1
2018-03-19T01:30:46.708Z,975.9
2018-03-19T01:31:49.277Z,976
2018-03-19T01:32:56.882Z,976
2018-03-19T01:33:59.355Z,976.1
2018-03-19T01:35:01.851Z,975.9
2018-03-19T01:36:04.339Z,975.9
2018-03-19T01:37:06.817Z,975.9
2018-03-19T01:38:09.285Z,975.9
2018-03-19T01:39:11.947Z,975.9
2018-03-19T01:40:14.437Z,975.8
2018-03-19T01:41:16.935Z,975.8
2018-03-19T01:42:19.371Z,976
2018-03-19T01:43:22.747Z,975.8
2018-03-19T01:44:25.215Z,975.8
2018-03-19T01:45:27.694Z,975.9
2018-03-19T01:46:30.267Z,975.8
2018-03-19T01:47:32.687Z,975.9
2018-03-19T01:48:35.140Z,975.8
2018-03-19T01:49:38.223Z,976
2018-03-19T01:50:40.724Z,975.8
2018-03-19T01:51:43.206Z,975.8
2018-03-19T01:52:45.626Z,976.1
2018-03-19T01:53:48.074Z,975.9
2018-03-19T01:54:50.545Z,975.7
2018-03-19T01:55:52.944Z,975.7
2018-03-19T01:56:55.484Z,975.8
2018-03-19T01:57:58.080Z,975.7
2018-03-19T01:59:00.579Z,975.7
2018-03-19T02:00:03.067Z,975.8
2018-03-19T02:01:05.510Z,975.9
2018-03-19T02:02:08.010Z,975.7
2018-03-19T02:03:10.598Z,975.6
2018-03-19T02:04:13.162Z,975.8
2018-03-19T02:05:15.618Z,975.8
2018-03-19T02:06:18.173Z,975.7
2018-03-19T02:07:20.976Z,975.6
2018-03-19T02:08:23.404Z,975.7
2018-03-19T02:09:25.876Z,975.6
2018-03-19T02:10:28.463Z,975.5
2018-03-19T02:11:30.930Z,975.6
2018-03-19T02:12:33.392Z,975.7
2018-03-19T02:13:35.864Z,975.7
2018-03-19T02:14:38.294Z,975.8
2018-03-19T02:15:40.896Z,975.7
2018-03-19T02:16:43.391Z,975.5
2018-03-19T02:17:46.057Z,975.6
2018-03-19T02:18:48.496Z,975.6
2018-03-19T02:19:51.092Z,975.7
2018-03-19T02:20:53.600Z,975.7
2018-03-19T02:21:56.082Z,975.6
2018-03-19T02:22:58.538Z,975.6
2018-03-19T02:24:01.174Z,975.8
2018-03-19T02:25:03.561Z,975.7
2018-03-19T02:26:05.994Z,975.6
2018-03-19T02:27:08.522Z,975.6
2018-03-19T02:28:11.772Z,975.7
2018-03-19T02:29:14.369Z,975.7
2018-03-19T02:30:16.839Z,975.7
2018-03-19T02:31:19.247Z,975.7
2018-03-19T02:32:21.815Z,975.6
2018-03-19T02:33:30.065Z,975.6
2018-03-19T02:34:32.489Z,975.7
2018-03-19T02:35:34.960Z,975.8
2018-03-19T02:36:37.390Z,975.7
2018-03-19T02:37:39.873Z,975.6
2018-03-19T02:38:42.337Z,975.8
2018-03-19T02:39:44.749Z,975.7
2018-03-19T02:40:47.178Z,975.6
2018-03-19T02:41:49.634Z,975.7
2018-03-19T02:42:52.135Z,975.8
2018-03-19T02:43:54.673Z,975.7
2018-03-19T02:44:57.134Z,975.3
2018-03-19T02:45:59.552Z,975.7
2018-03-19T02:47:02.948Z,975.5
2018-03-19T02:48:05.399Z,975.7
2018-03-19T02:49:08.696Z,975.6
2018-03-19T02:50:11.161Z,975.7
2018-03-19T02:51:13.618Z,975.6
2018-03-19T02:52:16.060Z,975.7
2018-03-19T02:53:18.489Z,975.8
2018-03-19T02:54:20.948Z,975.7
2018-03-19T02:55:23.410Z,975.8
2018-03-19T02:56:27.011Z,975.9
2018-03-19T02:57:29.525Z,975.7
2018-03-19T02:58:32.035Z,975.6
2018-03-19T02:59:34.448Z,975.7
2018-03-19T03:00:36.954Z,975.7
2018-03-19T03:01:40.041Z,975.6
2018-03-19T03:02:42.485Z,975.7
2018-03-19T03:03:44.938Z,975.7
2018-03-19T03:04:47.424Z,975.9
2018-03-19T03:05:50.067Z,975.7
2018-03-19T03:06:52.530Z,975.9
2018-03-19T03:07:55.026Z,975.6
2018-03-19T03:08:57.568Z,975.7
2018-03-19T03:10:00.672Z,975.7
2018-03-19T03:11:03.110Z,975.7
2018-03-19T03:12:05.842Z,975.7
2018-03-19T03:13:08.670Z,975.9
2018-03-19T03:14:11.159Z,975.9
2018-03-19T03:15:13.602Z,975.8
2018-03-19T03:16:16.047Z,975.8
2018-03-19T03:17:18.486Z,975.9
2018-03-19T03:18:21.055Z,975.9
2018-03-19T03:19:23.579Z,975.8
2018-03-19T03:20:26.367Z,975.8
2018-03-19T03:21:28.916Z,976
2018-03-19T03:22:31.363Z,975.8
2018-03-19T03:23:33.947Z,975.9
2018-03-19T03:24:36.409Z,975.4
2018-03-19T03:25:38.824Z,975.9
2018-03-19T03:26:41.266Z,975.9
2018-03-19T03:27:43.698Z,975.8
2018-03-19T03:28:46.142Z,975.9
2018-03-19T03:29:48.592Z,975.8
2018-03-19T03:30:51.614Z,975.8
2018-03-19T03:31:54.804Z,975.8
2018-03-19T03:32:57.594Z,975.6
2018-03-19T03:34:00.178Z,975.7
2018-03-19T03:35:02.847Z,975.9
2018-03-19T03:36:05.303Z,976.1
2018-03-19T03:37:07.857Z,976
2018-03-19T03:38:10.348Z,976
2018-03-19T03:39:12.793Z,976
2018-03-19T03:40:15.248Z,975.9
2018-03-19T03:41:17.736Z,975.9
2018-03-19T03:42:20.139Z,975.8
2018-03-19T03:43:22.834Z,975.8
2018-03-19T03:44:25.368Z,975.8
2018-03-19T03:45:27.898Z,975.9
2018-03-19T03:46:30.428Z,975.9
2018-03-19T03:47:32.950Z,975.8
2018-03-19T03:48:35.542Z,976
2018-03-19T03:49:37.998Z,975.8
2018-03-19T03:50:40.426Z,976
2018-03-19T03:51:42.878Z,976.1
2018-03-19T03:52:45.300Z,975.9
2018-03-19T03:53:47.688Z,975.9
2018-03-19T03:54:50.745Z,976
2018-03-19T03:55:53.197Z,976.2
2018-03-19T03:56:55.678Z,976
2018-03-19T03:57:58.126Z,976.1
2018-03-19T03:59:00.605Z,975.9
2018-03-19T04:00:03.189Z,975.7
2018-03-19T04:01:05.725Z,976
2018-03-19T04:02:08.416Z,976.3
2018-03-19T04:03:10.992Z,976.1
2018-03-19T04:04:13.492Z,976
2018-03-19T04:05:15.982Z,976.1
2018-03-19T04:06:18.441Z,976
2018-03-19T04:07:20.989Z,976.1
2018-03-19T04:08:23.487Z,975.9
2018-03-19T04:09:25.943Z,976
2018-03-19T04:10:28.466Z,976
2018-03-19T04:11:31.072Z,976
2018-03-19T04:12:33.587Z,976
2018-03-19T04:13:36.033Z,976.1
2018-03-19T04:14:38.499Z,976.1
2018-03-19T04:15:41.050Z,976.1
2018-03-19T04:16:43.503Z,976.2
2018-03-19T04:17:45.992Z,976.2
2018-03-19T04:18:48.479Z,976.2
2018-03-19T04:19:50.906Z,976
2018-03-19T04:20:53.309Z,976.1
2018-03-19T04:21:55.773Z,975.9
2018-03-19T04:22:58.318Z,976
2018-03-19T04:24:00.885Z,976
2018-03-19T04:25:03.374Z,976.3
2018-03-19T04:26:05.835Z,976
2018-03-19T04:27:08.361Z,976
2018-03-19T04:28:11.167Z,976
2018-03-19T04:29:13.624Z,976
2018-03-19T04:30:16.049Z,976.1
2018-03-19T04:31:18.484Z,976.1
2018-03-19T04:32:20.964Z,976.2
2018-03-19T04:33:23.546Z,976
2018-03-19T04:34:26.111Z,976.1
2018-03-19T04:35:28.605Z,976.2
2018-03-19T04:36:31.190Z,976.2
2018-03-19T04:37:33.679Z,976.1
2018-03-19T04:38:36.110Z,976
2018-03-19T04:39:38.529Z,976.1
2018-03-19T04:40:41.098Z,976.1
2018-03-19T04:41:43.482Z,976.1
2018-03-19T04:42:45.845Z,976.1
2018-03-19T04:43:48.260Z,976
2018-03-19T04:44:50.765Z,976.1
2018-03-19T04:45:53.245Z,976.1
2018-03-19T04:46:55.662Z,976.1
2018-03-19T04:47:58.114Z,976.1
2018-03-19T04:49:02.574Z,976
2018-03-19T04:50:05.105Z,976.2
2018-03-19T04:51:07.571Z,976.1
2018-03-19T04:52:10.593Z,976
2018-03-19T04:53:13.101Z,976
2018-03-19T04:54:15.690Z,976.1
2018-03-19T04:55:18.142Z,976.1
2018-03-19T04:56:20.663Z,976.2
2018-03-19T04:57:23.122Z,976.2
2018-03-19T04:58:25.664Z,976.1
2018-03-19T04:59:28.196Z,976.1
2018-03-19T05:00:30.723Z,976.2
2018-03-19T05:01:33.197Z,976.1
2018-03-19T05:02:43.236Z,976.3
2018-03-19T05:03:45.802Z,976.1
2018-03-19T05:04:48.256Z,976.1
2018-03-19T05:05:50.845Z,976.1
2018-03-19T05:06:53.430Z,976.1
2018-03-19T05:07:55.972Z,976.1
2018-03-19T05:08:58.616Z,976.2
2018-03-19T05:10:02.165Z,976.3
2018-03-19T05:11:04.657Z,976.3
2018-03-19T05:12:07.315Z,976.2
2018-03-19T05:13:09.939Z,976.1
2018-03-19T05:14:12.640Z,976.2
2018-03-19T05:15:15.186Z,976.2
2018-03-19T05:16:17.720Z,976.2
2018-03-19T05:17:20.398Z,976.2
2018-03-19T05:18:23.053Z,975.9
2018-03-19T05:19:25.650Z,976.4
2018-03-19T05:20:28.235Z,976.2
2018-03-19T05:21:30.722Z,976.2
2018-03-19T05:22:33.376Z,976.3
2018-03-19T05:23:35.975Z,976.2
2018-03-19T05:24:38.519Z,976.2
2018-03-19T05:25:41.527Z,976.3
2018-03-19T05:26:44.212Z,976.2
2018-03-19T05:27:46.773Z,976.2
2018-03-19T05:28:49.292Z,976.2
2018-03-19T05:29:51.842Z,976.3
2018-03-19T05:30:54.433Z,976.4
2018-03-19T05:31:56.912Z,976.2
2018-03-19T05:32:59.409Z,976.2
2018-03-19T05:34:02.039Z,976.2
2018-03-19T05:35:05.159Z,976.3
2018-03-19T05:36:07.827Z,976.2
2018-03-19T05:37:10.341Z,976.4
2018-03-19T05:38:12.917Z,975.9
2018-03-19T05:39:15.523Z,976.3
2018-03-19T05:40:21.067Z,976.3
2018-03-19T05:41:27.279Z,976.1
2018-03-19T05:42:29.793Z,976.2
2018-03-19T05:43:32.549Z,976.4
2018-03-19T05:44:35.088Z,976.3
2018-03-19T05:45:37.656Z,976.3
2018-03-19T05:46:40.142Z,976.2
2018-03-19T05:47:42.781Z,976.3
2018-03-19T05:48:45.375Z,976.6
2018-03-19T05:49:48.143Z,976.5
2018-03-19T05:50:50.849Z,976.5
2018-03-19T05:51:53.482Z,976.3
2018-03-19T05:52:56.116Z,976.6
2018-03-19T05:53:58.798Z,976.5
2018-03-19T05:55:01.502Z,976.6
2018-03-19T05:56:04.043Z,976.4
2018-03-19T05:57:12.575Z,976.5
2018-03-19T05:58:15.196Z,976.4
2018-03-19T05:59:17.880Z,976.5
2018-03-19T06:00:20.620Z,976.5
2018-03-19T06:01:28.678Z,976.6
2018-03-19T06:02:31.412Z,976.5
2018-03-19T06:03:33.929Z,976.5
2018-03-19T06:04:44.450Z,976.6
2018-03-19T06:05:52.322Z,976.7
2018-03-19T06:06:55.032Z,976.8
2018-03-19T06:07:58.271Z,976.5
2018-03-19T06:09:00.838Z,976.6
2018-03-19T06:10:03.385Z,976.7
2018-03-19T06:11:05.988Z,976.5
2018-03-19T06:12:08.750Z,976.7
2018-03-19T06:13:12.120Z,976.6
2018-03-19T06:14:14.720Z,976.7
2018-03-19T06:15:17.386Z,976.8
2018-03-19T06:16:19.924Z,976.8
2018-03-19T06:17:22.657Z,976.7
2018-03-19T06:18:25.220Z,976.9
2018-03-19T06:19:27.783Z,976.9
2018-03-19T06:20:30.313Z,976.9
2018-03-19T06:21:33.220Z,976.9
2018-03-19T06:22:35.867Z,976.9
2018-03-19T06:23:38.604Z,976.9
2018-03-19T06:24:41.336Z,976.9
2018-03-19T06:25:44.418Z,977
2018-03-19T06:26:47.542Z,976.8
2018-03-19T06:27:50.157Z,976.8
2018-03-19T06:28:52.902Z,976.7
2018-03-19T06:29:55.604Z,977
2018-03-19T06:30:58.165Z,976.9
2018-03-19T06:32:00.983Z,976.9
2018-03-19T06:33:03.678Z,976.8
2018-03-19T06:34:06.317Z,976.9
2018-03-19T06:35:08.986Z,976.7
2018-03-19T06:36:12.095Z,977
2018-03-19T06:37:14.873Z,976.8
2018-03-19T06:38:17.669Z,976.8
2018-03-19T06:39:20.453Z,976.9
2018-03-19T06:40:23.224Z,976.8
2018-03-19T06:41:26.041Z,977
2018-03-19T06:42:28.684Z,976.8
2018-03-19T06:43:31.477Z,976.9
2018-03-19T06:44:34.442Z,976.9
2018-03-19T06:45:37.019Z,977
2018-03-19T06:46:39.890Z,976.9
2018-03-19T06:47:43.410Z,976.8
2018-03-19T06:48:46.273Z,976.9
2018-03-19T06:49:49.436Z,976.9
2018-03-19T06:50:52.285Z,977
2018-03-19T06:51:55.337Z,976.8
2018-03-19T06:52:58.065Z,976.5
2018-03-19T06:54:03.948Z,976.9
2018-03-19T06:55:06.589Z,976.7
2018-03-19T06:56:09.616Z,976.7
2018-03-19T06:57:13.664Z,976.9
2018-03-19T06:58:16.428Z,976.8
2018-03-19T06:59:19.302Z,976.8
2018-03-19T07:00:22.941Z,976.8
2018-03-19T07:01:25.927Z,977
2018-03-19T07:02:28.888Z,976.6
2018-03-19T07:03:32.370Z,976.8
2018-03-19T07:04:35.522Z,976.8
2018-03-19T07:05:38.352Z,976.7
2018-03-19T07:06:41.069Z,976.9
2018-03-19T07:07:43.830Z,976.9
2018-03-19T07:08:46.617Z,976.8
2018-03-19T07:09:49.367Z,976.8
2018-03-19T07:10:52.095Z,976.6
2018-03-19T07:11:54.731Z,976.7
2018-03-19T07:12:57.358Z,976.7
2018-03-19T07:14:00.592Z,976.7
2018-03-19T07:15:03.545Z,976.7
2018-03-19T07:16:06.402Z,976.6
2018-03-19T07:17:09.116Z,976.6
2018-03-19T07:18:11.985Z,976.6
2018-03-19T07:19:14.619Z,976.6
2018-03-19T07:20:17.234Z,976.6
2018-03-19T07:21:23.336Z,976.6
2018-03-19T07:22:26.620Z,976.6
2018-03-19T07:23:29.968Z,976.6
2018-03-19T07:24:32.665Z,976.6
2018-03-19T07:25:35.649Z,976.6
2018-03-19T07:26:38.278Z,976.6
2018-03-19T07:27:41.459Z,976.7
2018-03-19T07:28:45.195Z,976.7
2018-03-19T07:29:48.973Z,976.7
2018-03-19T07:30:52.169Z,976.7
2018-03-19T07:31:55.878Z,976.7
2018-03-19T07:32:58.616Z,976.7
2018-03-19T07:34:03.500Z,976.8
2018-03-19T07:35:06.462Z,976.6
2018-03-19T07:36:10.273Z,976.7
2018-03-19T07:37:13.650Z,976.7
2018-03-19T07:38:16.358Z,976.7
2018-03-19T07:39:19.489Z,976.7
2018-03-19T07:40:22.993Z,976.7
2018-03-19T07:41:25.674Z,976.7
2018-03-19T07:42:35.567Z,976.7
2018-03-19T07:43:38.084Z,976.7
2018-03-19T07:44:40.757Z,976.6
2018-03-19T07:45:43.863Z,976.7
2018-03-19T07:46:46.489Z,976.7
2018-03-19T07:47:49.242Z,976.7
2018-03-19T07:48:51.921Z,976.7
2018-03-19T07:49:55.425Z,976.7
2018-03-19T07:50:58.455Z,976.8
2018-03-19T07:52:02.096Z,976.7
2018-03-19T07:53:04.876Z,976.7
2018-03-19T07:54:07.549Z,976.7
2018-03-19T07:55:10.378Z,976.7
2018-03-19T07:56:13.062Z,976.8
2018-03-19T07:57:16.457Z,976.5
2018-03-19T07:58:19.232Z,976.8
2018-03-19T07:59:22.195Z,976.8
2018-03-19T08:00:24.857Z,976.8
2018-03-19T08:01:29.572Z,976.8
2018-03-19T08:02:32.409Z,976.8
2018-03-19T08:03:35.181Z,976.8
2018-03-19T08:04:37.828Z,976.7
2018-03-19T08:05:40.589Z,976.8
2018-03-19T08:06:43.274Z,976.8
2018-03-19T08:07:46.021Z,976.8
2018-03-19T08:08:48.670Z,976.7
2018-03-19T08:09:51.664Z,976.8
2018-03-19T08:10:54.469Z,976.9
2018-03-19T08:11:57.514Z,976.7
2018-03-19T08:13:00.366Z,976.9
2018-03-19T08:14:04.821Z,976.8
2018-03-19T08:15:08.651Z,976.8
2018-03-19T08:16:11.398Z,976.9
2018-03-19T08:17:14.465Z,976.8
2018-03-19T08:18:17.203Z,976.8
2018-03-19T08:19:19.829Z,976.9
2018-03-19T08:20:22.969Z,976.8
2018-03-19T08:21:25.590Z,976.8
2018-03-19T08:22:33.350Z,976.6
2018-03-19T08:23:36.111Z,976.8
2018-03-19T08:24:38.771Z,976.9
2018-03-19T08:25:41.531Z,976.8
2018-03-19T08:26:44.241Z,976.8
2018-03-19T08:27:46.846Z,976.8
2018-03-19T08:28:49.488Z,976.7
2018-03-19T08:29:52.314Z,976.7
2018-03-19T08:30:55.125Z,976.8
2018-03-19T08:32:05.454Z,976.5
2018-03-19T08:33:08.406Z,976.8
2018-03-19T08:34:11.071Z,976.7
2018-03-19T08:35:14.190Z,976.7
2018-03-19T08:36:17.380Z,976.7
2018-03-19T08:37:20.716Z,976.8
2018-03-19T08:38:23.954Z,976.7
2018-03-19T08:39:26.913Z,976.7
2018-03-19T08:40:29.651Z,976.8
2018-03-19T08:41:32.782Z,976.5
2018-03-19T08:42:35.595Z,976.8
2018-03-19T08:43:38.308Z,976.8
2018-03-19T08:44:41.234Z,976.7
2018-03-19T08:45:44.538Z,976.7
2018-03-19T08:46:47.141Z,976.7
2018-03-19T08:47:58.138Z,976.8
2018-03-19T08:49:01.120Z,976.8
2018-03-19T08:50:04.174Z,976.8
2018-03-19T08:51:06.870Z,976.9
2018-03-19T08:52:09.547Z,976.8
2018-03-19T08:53:12.395Z,976.9
2018-03-19T08:54:15.171Z,976.6
2018-03-19T08:55:17.806Z,976.8
2018-03-19T08:56:20.816Z,976.6
2018-03-19T08:57:23.629Z,976.7
2018-03-19T08:58:26.551Z,976.6
2018-03-19T08:59:29.525Z,976.8
2018-03-19T09:00:32.514Z,976.8
2018-03-19T09:01:35.478Z,976.8
2018-03-19T09:02:38.189Z,976.8
2018-03-19T09:03:40.978Z,976.6
2018-03-19T09:04:44.138Z,976.8
2018-03-19T09:05:46.855Z,976.7
2018-03-19T09:06:49.638Z,976.8
2018-03-19T09:07:52.453Z,976.8
2018-03-19T09:08:55.105Z,976.7
2018-03-19T09:09:57.784Z,976.7
2018-03-19T09:11:00.854Z,976.7
2018-03-19T09:12:04.504Z,976.7
2018-03-19T09:13:07.768Z,976.7
2018-03-19T09:14:10.604Z,976.7
2018-03-19T09:15:14.191Z,976.4
2018-03-19T09:16:17.540Z,976.8
2018-03-19T09:17:22.433Z,976.8
2018-03-19T09:18:25.372Z,976.8
2018-03-19T09:19:28.369Z,976.4
2018-03-19T09:20:31.563Z,976.5
2018-03-19T09:21:35.357Z,976.8
2018-03-19T09:22:38.214Z,976.7
2018-03-19T09:23:41.055Z,976.8
2018-03-19T09:24:43.960Z,976.7
2018-03-19T09:25:46.941Z,976.7
2018-03-19T09:26:50.214Z,976.7
2018-03-19T09:27:53.408Z,976.7
2018-03-19T09:28:56.772Z,976.6
2018-03-19T09:29:59.977Z,976.6
2018-03-19T09:31:03.626Z,976.8
2018-03-19T09:32:07.147Z,976.7
2018-03-19T09:33:10.343Z,976.9
2018-03-19T09:34:13.594Z,976.9
2018-03-19T09:35:29.174Z,976.9
2018-03-19T09:36:32.131Z,976.8
2018-03-19T12:32:21.890Z,976
2018-03-19T12:33:25.560Z,976.3
2018-03-19T12:34:28.445Z,976.1
2018-03-19T12:35:31.283Z,976.4
2018-03-19T12:36:36.119Z,976.3
2018-03-19T12:37:47.693Z,976.3
2018-03-19T12:38:50.267Z,976.3
2018-03-19T12:39:53.548Z,976.3
2018-03-19T12:40:56.216Z,976.2
2018-03-19T12:41:59.020Z,976.3
2018-03-19T12:43:02.149Z,976.2
2018-03-19T12:44:06.218Z,976.1
2018-03-19T12:45:08.817Z,976.3
2018-03-19T12:46:11.528Z,976.3
2018-03-19T12:47:14.304Z,976.3
2018-03-19T12:48:16.990Z,976.3
2018-03-19T12:49:19.920Z,976.2
2018-03-19T12:50:22.455Z,976.1
2018-03-19T12:51:25.412Z,976.2
2018-03-19T12:52:27.965Z,976.1
2018-03-19T12:53:30.685Z,976.1
2018-03-19T12:54:33.444Z,976.3
2018-03-19T12:55:36.153Z,976.2
2018-03-19T12:56:39.270Z,976.2
2018-03-19T12:57:42.484Z,976.1
2018-03-19T12:58:45.703Z,976
2018-03-19T12:59:48.195Z,976.3
2018-03-19T13:00:50.812Z,976.2
2018-03-19T13:01:54.167Z,976.2
2018-03-19T13:02:57.890Z,976
2018-03-19T13:04:00.575Z,976.1
2018-03-19T13:05:05.102Z,976.2
2018-03-19T13:06:07.753Z,976
2018-03-19T13:07:10.508Z,976.2
2018-03-19T13:08:13.204Z,975.9
2018-03-19T13:09:15.889Z,976.1
2018-03-19T13:10:18.460Z,976.1
2018-03-19T13:11:21.276Z,976.1
2018-03-19T13:12:24.189Z,976.1
2018-03-19T13:13:26.946Z,976
2018-03-19T13:14:29.683Z,975.9
2018-03-19T13:15:32.255Z,976
2018-03-19T13:16:35.024Z,976
2018-03-19T13:17:46.130Z,976.1
2018-03-19T13:18:48.806Z,976
2018-03-19T13:19:51.647Z,976.1
2018-03-19T13:20:54.415Z,976.1
2018-03-19T13:21:57.080Z,976
2018-03-19T13:22:59.701Z,976
2018-03-19T13:24:02.588Z,975.8
2018-03-19T13:25:05.355Z,976
2018-03-19T13:26:08.163Z,976.1
2018-03-19T13:27:11.394Z,976
2018-03-19T13:28:14.139Z,976.1
2018-03-19T13:29:16.895Z,975.9
2018-03-19T13:30:19.574Z,976
2018-03-19T13:31:22.154Z,976
2018-03-19T13:32:24.831Z,975.9
2018-03-19T13:33:27.449Z,976
2018-03-19T13:34:31.498Z,976
2018-03-19T13:35:34.463Z,976
2018-03-19T13:36:37.127Z,976
2018-03-19T13:37:39.800Z,975.9
2018-03-19T13:38:42.429Z,976
2018-03-19T13:39:45.303Z,976
2018-03-19T13:40:48.385Z,976
2018-03-19T13:41:50.921Z,976
2018-03-19T13:42:53.495Z,976
2018-03-19T13:43:56.259Z,975.8
2018-03-19T13:44:58.773Z,976
2018-03-19T13:46:01.432Z,976.1
2018-03-19T13:47:04.909Z,976.1
2018-03-19T13:48:14.879Z,975.9
2018-03-19T13:49:17.882Z,976.1
2018-03-19T13:50:20.538Z,976.1
2018-03-19T13:51:23.340Z,976
2018-03-19T13:52:26.008Z,976
2018-03-19T13:53:28.675Z,976
2018-03-19T13:54:31.188Z,976
2018-03-19T13:55:33.951Z,976
2018-03-19T13:56:36.690Z,976.1
2018-03-19T13:57:39.462Z,976
2018-03-19T13:58:42.489Z,975.9
2018-03-19T13:59:45.242Z,976
2018-03-19T14:00:47.884Z,976
2018-03-19T14:01:50.514Z,976
2018-03-19T14:02:53.248Z,976
2018-03-19T14:03:56.310Z,976.1
2018-03-19T14:04:58.824Z,976.1
2018-03-19T14:06:01.725Z,976.1
2018-03-19T14:07:04.793Z,975.9
2018-03-19T14:08:07.726Z,976
2018-03-19T14:09:10.402Z,976
2018-03-19T14:10:13.072Z,976
2018-03-19T14:11:16.254Z,976
2018-03-19T14:12:18.852Z,976
2018-03-19T14:13:21.462Z,976.1
2018-03-19T14:14:24.121Z,976
2018-03-19T14:15:26.826Z,976
2018-03-19T14:16:29.452Z,976
2018-03-19T14:17:32.031Z,976
2018-03-19T14:18:34.617Z,975.9
2018-03-19T14:19:37.510Z,975.9
2018-03-19T14:20:40.288Z,975.9
2018-03-19T14:21:43.315Z,975.9
2018-03-19T14:22:46.041Z,975.8
2018-03-19T14:23:48.767Z,975.9
2018-03-19T14:24:51.496Z,975.8
2018-03-19T14:25:54.259Z,975.8
2018-03-19T14:26:57.099Z,975.9
2018-03-19T14:27:59.939Z,975.9
2018-03-19T14:29:03.190Z,975.6
2018-03-19T14:30:06.823Z,975.8
2018-03-19T14:31:09.665Z,975.7
2018-03-19T14:32:12.608Z,975.6
2018-03-19T14:33:15.652Z,975.6
2018-03-19T14:34:18.240Z,975.7
2018-03-19T14:35:21.048Z,975.5
2018-03-19T14:36:23.773Z,975.6
2018-03-19T14:37:27.260Z,975.7
2018-03-19T14:38:30.008Z,975.8
2018-03-19T14:39:32.646Z,975.8
2018-03-19T14:40:35.805Z,975.7
2018-03-19T14:41:45.768Z,975.7
2018-03-19T14:42:48.765Z,975.7
2018-03-19T14:43:51.548Z,975.6
2018-03-19T14:44:54.237Z,975.5
2018-03-19T14:45:57.313Z,975.7
2018-03-19T14:47:00.301Z,975.7
2018-03-19T14:48:03.845Z,975.5
2018-03-19T14:49:07.382Z,975.7
2018-03-19T14:50:10.499Z,975.7
2018-03-19T14:51:13.362Z,975.6
2018-03-19T14:52:18.206Z,975.6
2018-03-19T14:53:20.827Z,975.6
2018-03-19T14:54:23.517Z,975.7
2018-03-19T14:55:26.709Z,975.6
2018-03-19T14:56:30.101Z,975.7
2018-03-19T14:57:32.826Z,975.6
2018-03-19T14:58:35.560Z,975.7
2018-03-19T14:59:38.467Z,975.7
2018-03-19T15:00:41.454Z,975.7
2018-03-19T15:01:44.261Z,975.7
2018-03-19T15:02:47.095Z,975.6
2018-03-19T15:03:49.978Z,975.8
2018-03-19T15:04:52.460Z,975.7
2018-03-19T15:06:02.580Z,975.7
2018-03-19T15:07:08.004Z,975.6
2018-03-19T15:08:10.741Z,975.7
2018-03-19T15:09:13.921Z,975.7
2018-03-19T15:10:16.814Z,975.7
2018-03-19T15:11:19.527Z,975.7
2018-03-19T15:12:22.253Z,975.5
2018-03-19T15:13:24.962Z,975.6
2018-03-19T15:14:27.670Z,975.7
2018-03-19T15:15:30.349Z,975.6
2018-03-19T15:16:32.914Z,975.5
2018-03-19T15:17:35.893Z,975.6
2018-03-19T15:18:42.005Z,975.6
2018-03-19T15:19:44.636Z,975.6
2018-03-19T15:20:47.384Z,975.5
2018-03-19T15:21:49.952Z,975.6
2018-03-19T15:22:52.747Z,975.6
2018-03-19T15:23:55.404Z,975.6
2018-03-19T15:24:58.221Z,975.6
2018-03-19T15:26:00.870Z,975.6
2018-03-19T15:27:04.131Z,975.6
2018-03-19T15:28:12.128Z,975.6
2018-03-19T15:29:14.846Z,975.6
2018-03-19T15:30:17.731Z,975.6
2018-03-19T15:31:28.816Z,975.6
2018-03-19T15:32:31.496Z,975.6
2018-03-19T15:33:34.307Z,975.6
2018-03-19T15:34:36.960Z,975.6
2018-03-19T15:35:39.739Z,975.6
2018-03-19T15:36:49.691Z,975.6
2018-03-19T15:37:52.566Z,975.6
2018-03-19T15:38:55.381Z,975.6
2018-03-19T15:39:58.106Z,975.6
2018-03-19T15:41:00.788Z,975.6
2018-03-19T15:42:04.690Z,975.6
2018-03-19T15:43:07.950Z,975.5
2018-03-19T15:44:10.905Z,975.7
2018-03-19T15:45:13.684Z,975.7
2018-03-19T15:46:16.550Z,975.7
2018-03-19T15:47:19.163Z,975.7
2018-03-19T15:48:21.908Z,975.7
2018-03-19T15:49:24.632Z,975.8
2018-03-19T15:50:27.415Z,975.7
2018-03-19T15:51:30.350Z,975.7
2018-03-19T15:52:32.973Z,975.7
2018-03-19T15:53:35.878Z,975.7
2018-03-19T15:54:38.766Z,975.8
2018-03-19T15:55:41.851Z,975.8
2018-03-19T15:56:44.737Z,975.7
2018-03-19T15:57:47.674Z,975.8
2018-03-19T15:58:50.463Z,975.6
2018-03-19T15:59:53.178Z,975.8
2018-03-19T16:00:55.859Z,975.8
2018-03-19T16:02:09.591Z,975.7
2018-03-19T16:03:12.380Z,975.8
2018-03-19T16:04:15.058Z,975.8
2018-03-19T16:05:17.875Z,975.8
2018-03-19T16:06:20.488Z,975.8
2018-03-19T16:07:28.077Z,975.8
2018-03-19T16:08:30.708Z,975.8
2018-03-19T16:09:33.328Z,975.8
2018-03-19T16:10:36.136Z,975.8
2018-03-19T16:11:38.793Z,975.8
2018-03-19T16:12:41.513Z,975.8
2018-03-19T16:13:44.109Z,975.9
2018-03-19T16:14:46.973Z,975.7
2018-03-19T16:15:49.584Z,975.8
2018-03-19T16:16:52.202Z,975.8
2018-03-19T16:17:54.811Z,975.8
2018-03-19T16:18:57.609Z,975.7
2018-03-19T16:20:00.403Z,975.8
2018-03-19T16:21:03.082Z,975.8
2018-03-19T16:22:09.654Z,975.8
2018-03-19T16:23:12.336Z,975.8
2018-03-19T16:24:15.111Z,975.8
2018-03-19T16:25:17.869Z,975.8
2018-03-19T16:26:20.445Z,975.8
2018-03-19T16:27:23.189Z,975.6
2018-03-19T16:28:25.896Z,975.8
2018-03-19T16:29:28.547Z,975.8
2018-03-19T16:30:31.343Z,975.8
2018-03-19T16:31:34.188Z,975.7
2018-03-19T16:32:37.055Z,975.6